^^
Station Historical Data
Daily Summary for March 26, 2020 Units:  Metric    English   Both
« Previous Day
Next Day »
Daily Weekly Monthly Yearly Custom
  High: Low: Average:
Temperature: 9.4 °C -5.6 °C 0.8 °C
Dew Point: 0.1 °C -7.6 °C -3.1 °C
Humidity: 92% 45% 77%
Wind Speed: 22.5km/h 0km/h 9.2km/h
Wind Gust: 27.4km/h - -
Wind- - South
Pressure: 1012.4 hPa 1007.3 hPa -
Precipitation: 0 mm    
Historical Graphs
 
 
Tabular Data for March 26, 2020
Time Temperature Dew Point Pressure Wind Wind Speed Wind Gust Humidity Rainfall Rate (Hourly) solar Conditions
00:00 -3.1 °C -6.5 °C 1012.4 hPa SE 8 km/h 9.7 km/h 77% 0 mm 0.00 W/m2
00:05 -3.2 °C -6.5 °C 1012.4 hPa SE 4.8 km/h 11.3 km/h 78% 0 mm 0.00 W/m2
00:10 -3.2 °C -6.5 °C 1012.4 hPa SE 4.8 km/h 11.3 km/h 78% 0 mm 0.00 W/m2
00:15 -3.2 °C -6.5 °C 1012.4 hPa SE 8 km/h 11.3 km/h 78% 0 mm 0.00 W/m2
00:20 -3.3 °C -6.6 °C 1012.4 hPa SE 6.4 km/h 11.3 km/h 78% 0 mm 0.00 W/m2
00:25 -3.2 °C -6.5 °C 1012.4 hPa SE 8 km/h 8 km/h 78% 0 mm 0.00 W/m2
00:30 -3.2 °C -6.4 °C 1012.4 hPa SE 8 km/h 11.3 km/h 78% 0 mm 0.00 W/m2
00:35 -3.2 °C -6.4 °C 1012.4 hPa ESE 6.4 km/h 11.3 km/h 78% 0 mm 0.00 W/m2
00:40 -3.2 °C -6.5 °C 1012.4 hPa SE 6.4 km/h 9.7 km/h 78% 0 mm 0.00 W/m2
00:45 -3.3 °C -6.6 °C 1012.4 hPa SE 8 km/h 9.7 km/h 78% 0 mm 0.00 W/m2
00:50 -3.4 °C -6.6 °C 1012.4 hPa SE 8 km/h 9.7 km/h 79% 0 mm 0.00 W/m2
00:55 -3.6 °C -6.7 °C 1012.1 hPa SE 8 km/h 8 km/h 79% 0 mm 0.00 W/m2
01:00 -3.8 °C -6.9 °C 1012.1 hPa SE 11.3 km/h 11.3 km/h 79% 0 mm 0.00 W/m2
01:05 -3.8 °C -6.8 °C 1012.1 hPa SE 8 km/h 11.3 km/h 80% 0 mm 0.00 W/m2
01:10 -3.9 °C -7.1 °C 1011.7 hPa SE 8 km/h 11.3 km/h 79% 0 mm 0.00 W/m2
01:15 -3.9 °C -6.9 °C 1011.7 hPa SE 4.8 km/h 11.3 km/h 80% 0 mm 0.00 W/m2
01:20 -4 °C -6.9 °C 1012.1 hPa SE 4.8 km/h 11.3 km/h 80% 0 mm 0.00 W/m2
01:25 -4 °C -6.9 °C 1012.1 hPa SE 8 km/h 11.3 km/h 80% 0 mm 0.00 W/m2
01:30 -4.1 °C -7.1 °C 1012.1 hPa SE 6.4 km/h 11.3 km/h 80% 0 mm 0.00 W/m2
01:35 -4.2 °C -7.1 °C 1012.1 hPa SE 6.4 km/h 11.3 km/h 80% 0 mm 0.00 W/m2
01:40 -4.2 °C -7 °C 1012.1 hPa SE 6.4 km/h 11.3 km/h 81% 0 mm 0.00 W/m2
01:45 -4.2 °C -7 °C 1012.1 hPa SE 8 km/h 8 km/h 81% 0 mm 0.00 W/m2
01:50 -4.3 °C -7.1 °C 1011.7 hPa SE 8 km/h 11.3 km/h 81% 0 mm 0.00 W/m2
01:55 -4.2 °C -6.8 °C 1011.7 hPa SE 8 km/h 11.3 km/h 82% 0 mm 0.00 W/m2
02:00 -4.1 °C -6.7 °C 1011.7 hPa SE 6.4 km/h 11.3 km/h 82% 0 mm 0.00 W/m2
02:05 -4.1 °C -6.7 °C 1011.7 hPa SE 6.4 km/h 8 km/h 82% 0 mm 0.00 W/m2
02:10 -4.1 °C -6.8 °C 1011.7 hPa ESE 6.4 km/h 8 km/h 81% 0 mm 0.00 W/m2
02:15 -4.1 °C -6.8 °C 1011.4 hPa ESE 6.4 km/h 8 km/h 81% 0 mm 0.00 W/m2
02:20 -4.1 °C -6.9 °C 1011.4 hPa ESE 6.4 km/h 9.7 km/h 81% 0 mm 0.00 W/m2
02:25 -4.2 °C -6.8 °C 1011.4 hPa ESE 6.4 km/h 9.7 km/h 82% 0 mm 0.00 W/m2
02:30 -4.2 °C -6.8 °C 1011.4 hPa ESE 4.8 km/h 9.7 km/h 82% 0 mm 0.00 W/m2
02:35 -4.2 °C -6.8 °C 1011.4 hPa ESE 4.8 km/h 6.4 km/h 82% 0 mm 0.00 W/m2
02:40 -4.2 °C -6.7 °C 1011.1 hPa ESE 4.8 km/h 6.4 km/h 83% 0 mm 0.00 W/m2
02:45 -4.2 °C -6.6 °C 1011.1 hPa ESE 6.4 km/h 6.4 km/h 83% 0 mm 0.00 W/m2
02:50 -4.2 °C -6.8 °C 1011.1 hPa ESE 3.2 km/h 6.4 km/h 82% 0 mm 0.00 W/m2
02:55 -4.2 °C -6.8 °C 1011.1 hPa ESE 4.8 km/h 6.4 km/h 82% 0 mm 0.00 W/m2
03:00 -4.2 °C -6.6 °C 1011.1 hPa ESE 3.2 km/h 6.4 km/h 83% 0 mm 0.00 W/m2
03:05 -4.2 °C -6.7 °C 1011.1 hPa ESE 4.8 km/h 6.4 km/h 83% 0 mm 0.00 W/m2
03:10 -4.3 °C -6.7 °C 1011.1 hPa ESE 4.8 km/h 6.4 km/h 83% 0 mm 0.00 W/m2
03:15 -4.3 °C -6.7 °C 1011.1 hPa ESE 4.8 km/h 9.7 km/h 83% 0 mm 0.00 W/m2
03:20 -4.4 °C -6.8 °C 1011.1 hPa ESE 6.4 km/h 9.7 km/h 83% 0 mm 0.00 W/m2
03:25 -4.4 °C -6.7 °C 1011.1 hPa SE 6.4 km/h 9.7 km/h 84% 0 mm 0.00 W/m2
03:30 -4.3 °C -6.6 °C 1010.7 hPa ESE 4.8 km/h 8 km/h 84% 0 mm 0.00 W/m2
03:35 -4.4 °C -6.8 °C 1010.7 hPa ESE 4.8 km/h 9.7 km/h 83% 0 mm 0.00 W/m2
03:40 -4.4 °C -6.7 °C 1010.7 hPa ESE 6.4 km/h 9.7 km/h 84% 0 mm 0.00 W/m2
03:45 -4.4 °C -6.7 °C 1010.7 hPa ESE 6.4 km/h 6.4 km/h 84% 0 mm 0.00 W/m2
03:50 -4.4 °C -6.7 °C 1010.7 hPa SE 6.4 km/h 6.4 km/h 84% 0 mm 0.00 W/m2
03:55 -4.6 °C -6.8 °C 1010.7 hPa SE 8 km/h 11.3 km/h 84% 0 mm 0.00 W/m2
04:00 -4.6 °C -6.8 °C 1010.7 hPa SE 4.8 km/h 11.3 km/h 84% 0 mm 0.00 W/m2
04:05 -4.6 °C -6.7 °C 1010.7 hPa ESE 6.4 km/h 11.3 km/h 85% 0 mm 0.00 W/m2
04:10 -4.5 °C -6.8 °C 1010.7 hPa SE 3.2 km/h 8 km/h 84% 0 mm 0.00 W/m2
04:15 -4.6 °C -6.9 °C 1011.1 hPa SE 8 km/h 8 km/h 84% 0 mm 0.00 W/m2
04:20 -4.7 °C -6.8 °C 1010.7 hPa SE 8 km/h 8 km/h 85% 0 mm 0.00 W/m2
04:25 -4.8 °C -7.1 °C 1011.1 hPa SE 6.4 km/h 11.3 km/h 84% 0 mm 0.00 W/m2
04:30 -5 °C -7.1 °C 1011.1 hPa SE 4.8 km/h 11.3 km/h 85% 0 mm 0.00 W/m2
04:35 -5.2 °C -7.3 °C 1011.1 hPa SE 6.4 km/h 11.3 km/h 85% 0 mm 0.00 W/m2
04:40 -5.4 °C -7.6 °C 1011.1 hPa SSE 9.7 km/h 11.3 km/h 85% 0 mm 0.00 W/m2
04:45 -5.5 °C -7.4 °C 1011.1 hPa SE 8 km/h 12.9 km/h 86% 0 mm 0.00 W/m2
04:50 -5.5 °C -7.4 °C 1011.1 hPa SE 6.4 km/h 12.9 km/h 86% 0 mm 0.00 W/m2
04:55 -5.5 °C -7.4 °C 1011.1 hPa SE 11.3 km/h 12.9 km/h 86% 0 mm 0.00 W/m2
05:00 -5.5 °C -7.4 °C 1011.1 hPa SSE 9.7 km/h 12.9 km/h 86% 0 mm 0.00 W/m2
05:05 -5.6 °C -7.5 °C 1011.1 hPa SSE 8 km/h 12.9 km/h 86% 0 mm 0.00 W/m2
05:10 -5.6 °C -7.5 °C 1011.1 hPa SE 8 km/h 12.9 km/h 86% 0 mm 0.00 W/m2
05:15 -5.6 °C -7.6 °C 1011.1 hPa SSE 8 km/h 11.3 km/h 86% 0 mm 0.00 W/m2
05:20 -5.5 °C -7.3 °C 1010.7 hPa SE 6.4 km/h 11.3 km/h 87% 0 mm 0.00 W/m2
05:25 -5.3 °C -6.9 °C 1011.1 hPa SSE 8 km/h 11.3 km/h 88% 0 mm 0.00 W/m2
05:30 -5 °C -6.7 °C 1010.7 hPa South 6.4 km/h 12.9 km/h 88% 0 mm 0.00 W/m2
05:35 -4.7 °C -6.2 °C 1010.7 hPa South 6.4 km/h 12.9 km/h 89% 0 mm 0.00 W/m2
05:40 -4.4 °C -6 °C 1010.7 hPa South 4.8 km/h 9.7 km/h 89% 0 mm 0.00 W/m2
05:45 -4.2 °C -5.6 °C 1010.7 hPa SSW 8 km/h 14.5 km/h 90% 0 mm 0.00 W/m2
05:50 -3.8 °C -5.2 °C 1010.7 hPa South 11.3 km/h 19.3 km/h 90% 0 mm 0.00 W/m2
05:55 -3.6 °C -5 °C 1010.7 hPa SW 11.3 km/h 24.1 km/h 90% 0 mm 0.00 W/m2
06:00 -3.6 °C -4.9 °C 1010.7 hPa SSW 17.7 km/h 24.1 km/h 90% 0 mm 0.00 W/m2
06:05 -3.6 °C -4.9 °C 1010.7 hPa SSW 8 km/h 20.9 km/h 90% 0 mm 0.00 W/m2
06:10 -3.6 °C -5.1 °C 1011.1 hPa SSW 22.5 km/h 22.5 km/h 89% 0 mm 0.00 W/m2
06:15 -3.6 °C -5 °C 1010.7 hPa South 9.7 km/h 24.1 km/h 90% 0 mm 0.00 W/m2
06:20 -3.6 °C -4.9 °C 1010.7 hPa SSW 11.3 km/h 24.1 km/h 90% 0 mm 0.00 W/m2
06:25 -3.4 °C -4.8 °C 1010.7 hPa SW 12.9 km/h 20.9 km/h 90% 0 mm 0.00 W/m2
06:30 -3.4 °C -4.8 °C 1010.7 hPa SW 6.4 km/h 20.9 km/h 90% 0 mm 0.00 W/m2
06:35 -3.3 °C -4.7 °C 1010.7 hPa SW 6.4 km/h 16.1 km/h 90% 0 mm 0.00 W/m2
06:40 -3.3 °C -4.7 °C 1010.7 hPa SSW 6.4 km/h 17.7 km/h 90% 0 mm 0.00 W/m2
06:45 -3.3 °C -4.7 °C 1010.7 hPa SSW 12.9 km/h 19.3 km/h 90% 0 mm 0.00 W/m2
06:50 -3.3 °C -4.7 °C 1010.7 hPa South 12.9 km/h 19.3 km/h 90% 0 mm 0.00 W/m2
06:55 -3.3 °C -4.7 °C 1010.7 hPa SSW 16.1 km/h 17.7 km/h 90% 0 mm 0.00 W/m2
07:00 -3.2 °C -4.6 °C 1010.4 hPa SSW 6.4 km/h 17.7 km/h 90% 0 mm 0.00 W/m2
07:05 -3.2 °C -4.4 °C 1010.4 hPa SW 12.9 km/h 17.7 km/h 91% 0 mm 0.00 W/m2
07:10 -3.1 °C -4.4 °C 1010.7 hPa SSW 11.3 km/h 20.9 km/h 91% 0 mm 0.00 W/m2
07:15 -3.1 °C -4.3 °C 1010.7 hPa SSW 8 km/h 20.9 km/h 91% 0 mm 0.00 W/m2
07:20 -3 °C -4.3 °C 1010.7 hPa SW 8 km/h 22.5 km/h 91% 0 mm 0.00 W/m2
07:25 -3 °C -4.3 °C 1010.4 hPa SW 6.4 km/h 22.5 km/h 91% 0 mm 0.00 W/m2
07:30 -3 °C -4.4 °C 1010.4 hPa SW 9.7 km/h 19.3 km/h 90% 0 mm 0.00 W/m2
07:35 -3 °C -4.3 °C 1010.4 hPa SW 12.9 km/h 19.3 km/h 91% 0 mm 0.00 W/m2
07:40 -2.9 °C -4.2 °C 1010.4 hPa SW 9.7 km/h 17.7 km/h 91% 0 mm 0.00 W/m2
07:45 -2.9 °C -4.2 °C 1010.7 hPa SSW 8 km/h 17.7 km/h 91% 0 mm 0.00 W/m2
07:50 -2.8 °C -4.1 °C 1010.7 hPa South 9.7 km/h 16.1 km/h 91% 0 mm 0.00 W/m2
07:55 -2.8 °C -4.1 °C 1010.7 hPa SW 11.3 km/h 19.3 km/h 91% 0 mm 0.00 W/m2
08:00 -2.8 °C -4.1 °C 1011.1 hPa SSW 12.9 km/h 19.3 km/h 91% 0 mm 0.00 W/m2
08:05 -2.7 °C -4 °C 1010.7 hPa South 4.8 km/h 17.7 km/h 91% 0 mm 0.00 W/m2
08:10 -2.7 °C -4 °C 1010.7 hPa SW 12.9 km/h 16.1 km/h 91% 0 mm 0.00 W/m2
08:15 -2.7 °C -4 °C 1010.7 hPa SSW 11.3 km/h 17.7 km/h 91% 0 mm 0.00 W/m2
08:20 -2.7 °C -4 °C 1010.7 hPa South 11.3 km/h 17.7 km/h 91% 0 mm 0.00 W/m2
08:25 -2.7 °C -3.9 °C 1011.1 hPa SSW 4.8 km/h 16.1 km/h 91% 0 mm 0.00 W/m2
08:30 -2.7 °C -3.9 °C 1010.7 hPa South 12.9 km/h 16.1 km/h 91% 0 mm 0.00 W/m2
08:35 -2.6 °C -3.9 °C 1011.1 hPa South 8 km/h 16.1 km/h 91% 0 mm 0.00 W/m2
08:40 -2.6 °C -3.8 °C 1011.1 hPa SSW 8 km/h 16.1 km/h 91% 0 mm 0.00 W/m2
08:45 -2.6 °C -3.8 °C 1011.1 hPa SSW 6.4 km/h 16.1 km/h 91% 0 mm 0.00 W/m2
08:50 -2.5 °C -3.8 °C 1011.1 hPa SW 4.8 km/h 14.5 km/h 91% 0 mm 7.00 W/m2
08:55 -2.4 °C -3.7 °C 1011.1 hPa SW 11.3 km/h 14.5 km/h 91% 0 mm 11.00 W/m2
09:00 -2.4 °C -3.7 °C 1011.1 hPa SSW 11.3 km/h 16.1 km/h 91% 0 mm 11.00 W/m2
09:05 -2.4 °C -3.7 °C 1011.1 hPa SW 11.3 km/h 16.1 km/h 91% 0 mm 16.00 W/m2
09:10 -2.3 °C -3.6 °C 1011.1 hPa SSW 8 km/h 16.1 km/h 91% 0 mm 19.00 W/m2
09:15 -2.3 °C -3.6 °C 1011.1 hPa SSE 9.7 km/h 19.3 km/h 91% 0 mm 21.00 W/m2
09:20 -2.2 °C -3.5 °C 1011.1 hPa South 17.7 km/h 19.3 km/h 91% 0 mm 23.00 W/m2
09:25 -2.2 °C -3.3 °C 1011.1 hPa SSW 12.9 km/h 19.3 km/h 92% 0 mm 28.00 W/m2
09:30 -2.2 °C -3.3 °C 1010.7 hPa South 11.3 km/h 19.3 km/h 92% 0 mm 30.00 W/m2
09:35 -2.1 °C -3.3 °C 1010.7 hPa South 9.7 km/h 17.7 km/h 91% 0 mm 28.00 W/m2
09:40 -2 °C -3.3 °C 1011.1 hPa SSW 14.5 km/h 20.9 km/h 91% 0 mm 26.00 W/m2
09:45 -2 °C -3.3 °C 1010.7 hPa SSW 12.9 km/h 24.1 km/h 91% 0 mm 40.00 W/m2
09:50 -1.9 °C -3.2 °C 1011.1 hPa SSW 12.9 km/h 24.1 km/h 91% 0 mm 46.00 W/m2
09:55 -1.9 °C -3.2 °C 1010.7 hPa SSW 12.9 km/h 20.9 km/h 91% 0 mm 46.00 W/m2
10:00 -1.8 °C -3.1 °C 1010.7 hPa SSE 11.3 km/h 22.5 km/h 91% 0 mm 51.00 W/m2
10:05 -1.8 °C -3.1 °C 1010.7 hPa WSW 14.5 km/h 22.5 km/h 91% 0 mm 95.00 W/m2
10:10 -1.7 °C -3.1 °C 1010.7 hPa South 14.5 km/h 20.9 km/h 90% 0 mm 111.00 W/m2
10:15 -1.6 °C -2.8 °C 1010.7 hPa SSW 12.9 km/h 24.1 km/h 91% 0 mm 60.00 W/m2
10:20 -1.6 °C -3 °C 1010.7 hPa SSW 11.3 km/h 24.1 km/h 90% 0 mm 49.00 W/m2
10:25 -1.5 °C -2.9 °C 1010.7 hPa South 8 km/h 20.9 km/h 90% 0 mm 60.00 W/m2
10:30 -1.4 °C -2.9 °C 1010.7 hPa SSW 9.7 km/h 20.9 km/h 90% 0 mm 62.00 W/m2
10:35 -1.3 °C -2.8 °C 1010.7 hPa South 17.7 km/h 20.9 km/h 90% 0 mm 86.00 W/m2
10:40 -1.3 °C -2.7 °C 1010.7 hPa South 12.9 km/h 20.9 km/h 90% 0 mm 84.00 W/m2
10:45 -1.3 °C -2.8 °C 1010.7 hPa SSW 12.9 km/h 24.1 km/h 89% 0 mm 77.00 W/m2
10:50 -1.3 °C -2.9 °C 1010.7 hPa SW 17.7 km/h 24.1 km/h 89% 0 mm 74.00 W/m2
10:55 -1.3 °C -2.8 °C 1010.7 hPa SSW 9.7 km/h 24.1 km/h 89% 0 mm 98.00 W/m2
11:00 -1.2 °C -2.7 °C 1010.7 hPa SSW 16.1 km/h 22.5 km/h 89% 0 mm 109.00 W/m2
11:05 -1.1 °C -2.6 °C 1010.7 hPa SSW 16.1 km/h 24.1 km/h 89% 0 mm 130.00 W/m2
11:10 -0.9 °C -2.6 °C 1010.7 hPa SSW 9.7 km/h 25.7 km/h 89% 0 mm 158.00 W/m2
11:15 -0.8 °C -2.4 °C 1010.7 hPa SSW 17.7 km/h 25.7 km/h 89% 0 mm 171.00 W/m2
11:20 -0.7 °C -2.3 °C 1010.7 hPa SSW 14.5 km/h 22.5 km/h 89% 0 mm 148.00 W/m2
11:25 -0.6 °C -2.3 °C 1010.7 hPa SSW 11.3 km/h 22.5 km/h 88% 0 mm 167.00 W/m2
11:30 -0.7 °C -2.4 °C 1010.7 hPa SW 12.9 km/h 22.5 km/h 88% 0 mm 195.00 W/m2
11:35 -0.6 °C -2.3 °C 1010.4 hPa SSW 9.7 km/h 22.5 km/h 88% 0 mm 211.00 W/m2
11:40 -0.4 °C -2.1 °C 1010.4 hPa SSW 8 km/h 22.5 km/h 88% 0 mm 225.00 W/m2
11:45 -0.2 °C -1.9 °C 1010.4 hPa SW 12.9 km/h 22.5 km/h 88% 0 mm 197.00 W/m2
11:50 -0.3 °C -2.2 °C 1010.4 hPa SW 17.7 km/h 20.9 km/h 87% 0 mm 185.00 W/m2
11:55 -0.3 °C -2.2 °C 1010.4 hPa South 9.7 km/h 20.9 km/h 87% 0 mm 160.00 W/m2
12:00 -0.2 °C -2.1 °C 1010.4 hPa SW 9.7 km/h 20.9 km/h 87% 0 mm 113.00 W/m2
12:05 -0.1 °C -1.9 °C 1010.7 hPa SSW 8 km/h 17.7 km/h 87% 0 mm 188.00 W/m2
12:10 0 °C -2.1 °C 1010.7 hPa South 11.3 km/h 19.3 km/h 86% 0 mm 169.00 W/m2
12:15 0.1 °C -2 °C 1010.7 hPa SSW 8 km/h 19.3 km/h 86% 0 mm 181.00 W/m2
12:20 0.2 °C -2 °C 1010.7 hPa SW 12.9 km/h 17.7 km/h 85% 0 mm 179.00 W/m2
12:25 0.3 °C -1.9 °C 1010.7 hPa SW 4.8 km/h 16.1 km/h 85% 0 mm 190.00 W/m2
12:30 0.3 °C -1.9 °C 1010.4 hPa WSW 14.5 km/h 19.3 km/h 85% 0 mm 213.00 W/m2
12:35 0.4 °C -1.8 °C 1010.4 hPa WSW 8 km/h 19.3 km/h 85% 0 mm 232.00 W/m2
12:40 0.6 °C -1.8 °C 1010.4 hPa SW 11.3 km/h 17.7 km/h 84% 0 mm 237.00 W/m2
12:45 0.6 °C -1.8 °C 1010.4 hPa West 11.3 km/h 20.9 km/h 84% 0 mm 236.00 W/m2
12:50 0.7 °C -1.8 °C 1010.7 hPa SW 11.3 km/h 20.9 km/h 83% 0 mm 251.00 W/m2
12:55 0.9 °C -1.7 °C 1010.4 hPa West 11.3 km/h 19.3 km/h 83% 0 mm 279.00 W/m2
13:00 0.9 °C -1.8 °C 1010.4 hPa WSW 12.9 km/h 19.3 km/h 82% 0 mm 269.00 W/m2
13:05 0.9 °C -1.8 °C 1010.4 hPa SW 9.7 km/h 19.3 km/h 82% 0 mm 267.00 W/m2
13:10 1 °C -1.9 °C 1010.4 hPa SW 9.7 km/h 19.3 km/h 81% 0 mm 272.00 W/m2
13:15 1.1 °C -1.8 °C 1010.4 hPa SSW 6.4 km/h 19.3 km/h 81% 0 mm 287.00 W/m2
13:20 1.3 °C -1.6 °C 1010.4 hPa WSW 14.5 km/h 17.7 km/h 81% 0 mm 313.00 W/m2
13:25 1.2 °C -1.8 °C 1010.4 hPa WSW 3.2 km/h 17.7 km/h 80% 0 mm 274.00 W/m2
13:30 1.3 °C -1.6 °C 1010.4 hPa SW 8 km/h 17.7 km/h 81% 0 mm 341.00 W/m2
13:35 1.6 °C -1.3 °C 1010 hPa Calm   17.7 km/h 81% 0 mm 371.00 W/m2
13:40 1.7 °C -1.6 °C 1010 hPa West 12.9 km/h 17.7 km/h 79% 0 mm 418.00 W/m2
13:45 1.9 °C -1.6 °C 1010 hPa West 6.4 km/h 14.5 km/h 78% 0 mm 432.00 W/m2
13:50 2.2 °C -1.3 °C 1010 hPa South 11.3 km/h 14.5 km/h 78% 0 mm 499.00 W/m2
13:55 2.8 °C -1.1 °C 1010 hPa SSW 11.3 km/h 17.7 km/h 76% 0 mm 448.00 W/m2
14:00 2.9 °C -1.2 °C 1010 hPa SSW 6.4 km/h 17.7 km/h 74% 0 mm 469.00 W/m2
14:05 3.1 °C -1.3 °C 1009.7 hPa West 9.7 km/h 19.3 km/h 73% 0 mm 415.00 W/m2
14:10 2.8 °C -1.3 °C 1009.7 hPa WSW 8 km/h 19.3 km/h 74% 0 mm 469.00 W/m2
14:15 2.9 °C -1.1 °C 1009.7 hPa West 9.7 km/h 17.7 km/h 75% 0 mm 578.00 W/m2
14:20 3.3 °C -1.1 °C 1009.7 hPa SSW 4.8 km/h 17.7 km/h 73% 0 mm 457.00 W/m2
14:25 3.1 °C -1.3 °C 1009.7 hPa WSW 1.6 km/h 17.7 km/h 73% 0 mm 373.00 W/m2
14:30 3.3 °C -0.9 °C 1009.7 hPa SSW 8 km/h 17.7 km/h 74% 0 mm 840.00 W/m2
14:35 3.8 °C -0.8 °C 1009.7 hPa SSE 14.5 km/h 14.5 km/h 72% 0 mm 817.00 W/m2
14:40 4.4 °C -0.4 °C 1009.4 hPa WSW 8 km/h 14.5 km/h 71% 0 mm 775.00 W/m2
14:45 4.6 °C -0.8 °C 1009.4 hPa SSW 9.7 km/h 14.5 km/h 68% 0 mm 768.00 W/m2
14:50 4.9 °C -0.5 °C 1009.4 hPa SW 8 km/h 16.1 km/h 68% 0 mm 766.00 W/m2
14:55 5.2 °C -0.4 °C 1009 hPa South 8 km/h 16.1 km/h 67% 0 mm 782.00 W/m2
15:00 5.7 °C -0.3 °C 1009 hPa SE 1.6 km/h 14.5 km/h 65% 0 mm 779.00 W/m2
15:05 5.8 °C -0.4 °C 1009 hPa WSW 8 km/h 14.5 km/h 64% 0 mm 770.00 W/m2
15:10 5.3 °C -0.7 °C 1009 hPa WNW 3.2 km/h 11.3 km/h 65% 0 mm 761.00 W/m2
15:15 5.2 °C -0.8 °C 1009 hPa SE 3.2 km/h 11.3 km/h 65% 0 mm 766.00 W/m2
15:20 5.4 °C -0.7 °C 1009 hPa SW 1.6 km/h 11.3 km/h 65% 0 mm 772.00 W/m2
15:25 5.9 °C -0.4 °C 1008.7 hPa South 12.9 km/h 17.7 km/h 64% 0 mm 691.00 W/m2
15:30 5.8 °C -0.7 °C 1008.7 hPa South 8 km/h 17.7 km/h 63% 0 mm 803.00 W/m2
15:35 5.6 °C -0.7 °C 1008.4 hPa SSW 9.7 km/h 16.1 km/h 64% 0 mm 329.00 W/m2
15:40 5.9 °C -0.4 °C 1008.4 hPa South 8 km/h 16.1 km/h 64% 0 mm 766.00 W/m2
15:45 5.9 °C -0.6 °C 1008.4 hPa WSW 6.4 km/h 14.5 km/h 63% 0 mm 744.00 W/m2
15:50 5.9 °C -0.6 °C 1008.4 hPa SSE 8 km/h 14.5 km/h 63% 0 mm 225.00 W/m2
15:55 6 °C -0.7 °C 1008.4 hPa SE 8 km/h 14.5 km/h 62% 0 mm 768.00 W/m2
16:00 6.3 °C -0.2 °C 1008.4 hPa SSE 9.7 km/h 12.9 km/h 63% 0 mm 737.00 W/m2
16:05 6.9 °C -0.1 °C 1008.4 hPa SSE 14.5 km/h 16.1 km/h 61% 0 mm 724.00 W/m2
16:10 7.3 °C -0.2 °C 1008 hPa SSW 6.4 km/h 16.1 km/h 59% 0 mm 715.00 W/m2
16:15 7.3 °C -0.7 °C 1008 hPa SE 12.9 km/h 19.3 km/h 57% 0 mm 679.00 W/m2
16:20 7.3 °C -0.9 °C 1008 hPa South 1.6 km/h 19.3 km/h 56% 0 mm 367.00 W/m2
16:25 7.4 °C -0.1 °C 1008 hPa SSE 14.5 km/h 16.1 km/h 59% 0 mm 712.00 W/m2
16:30 7.9 °C -0.3 °C 1008 hPa SW 4.8 km/h 19.3 km/h 56% 0 mm 693.00 W/m2
16:35 7.7 °C -0.6 °C 1008 hPa South 16.1 km/h 19.3 km/h 56% 0 mm 682.00 W/m2
16:40 7.8 °C -0.9 °C 1008 hPa South 4.8 km/h 17.7 km/h 54% 0 mm 677.00 W/m2
16:45 7.7 °C -0.8 °C 1008 hPa SSE 12.9 km/h 17.7 km/h 55% 0 mm 675.00 W/m2
16:50 7.7 °C -0.6 °C 1008 hPa South 8 km/h 22.5 km/h 56% 0 mm 675.00 W/m2
16:55 7.8 °C -1.2 °C 1008 hPa Calm   22.5 km/h 53% 0 mm 666.00 W/m2
17:00 7.8 °C -0.7 °C 1008 hPa South 9.7 km/h 19.3 km/h 55% 0 mm 652.00 W/m2
17:05 8.1 °C -0.7 °C 1008 hPa South 9.7 km/h 19.3 km/h 54% 0 mm 636.00 W/m2
17:10 8.2 °C -0.6 °C 1007.7 hPa SSW 6.4 km/h 14.5 km/h 54% 0 mm 622.00 W/m2
17:15 8.4 °C -0.1 °C 1007.7 hPa SSW 8 km/h 14.5 km/h 55% 0 mm 612.00 W/m2
17:20 8.6 °C -0.7 °C 1007.7 hPa South 6.4 km/h 16.1 km/h 52% 0 mm 599.00 W/m2
17:25 8.7 °C -0.3 °C 1007.7 hPa South 11.3 km/h 17.7 km/h 53% 0 mm 612.00 W/m2
17:30 8.8 °C -1.1 °C 1007.7 hPa South 8 km/h 17.7 km/h 50% 0 mm 584.00 W/m2
17:35 8.8 °C -0.6 °C 1007.7 hPa ESE 3.2 km/h 14.5 km/h 52% 0 mm 501.00 W/m2
17:40 8.7 °C -0.9 °C 1007.7 hPa East 6.4 km/h 17.7 km/h 51% 0 mm 605.00 W/m2
17:45 8.6 °C -0.8 °C 1007.7 hPa ESE 9.7 km/h 19.3 km/h 52% 0 mm 570.00 W/m2
17:50 8.5 °C -0.8 °C 1007.3 hPa SSE 14.5 km/h 22.5 km/h 52% 0 mm 541.00 W/m2
17:55 8.7 °C -0.9 °C 1007.3 hPa SSE 8 km/h 22.5 km/h 51% 0 mm 529.00 W/m2
18:00 8.6 °C -1.3 °C 1007.3 hPa South 6.4 km/h 22.5 km/h 50% 0 mm 471.00 W/m2
18:05 8.5 °C -1.9 °C 1007.3 hPa SE 6.4 km/h 22.5 km/h 48% 0 mm 327.00 W/m2
18:10 8.6 °C -1.5 °C 1007.3 hPa SE 8 km/h 20.9 km/h 49% 0 mm 531.00 W/m2
18:15 8.9 °C -1.6 °C 1007.3 hPa SSE 16.1 km/h 19.3 km/h 48% 0 mm 443.00 W/m2
18:20 8.9 °C -1 °C 1007.3 hPa South 9.7 km/h 19.3 km/h 50% 0 mm 434.00 W/m2
18:25 8.7 °C -1.7 °C 1007.3 hPa South 14.5 km/h 24.1 km/h 48% 0 mm 325.00 W/m2
18:30 8.3 °C -2.1 °C 1007.3 hPa ESE 4.8 km/h 24.1 km/h 48% 0 mm 295.00 W/m2
18:35 8.3 °C -0.9 °C 1007.3 hPa South 8 km/h 20.9 km/h 52% 0 mm 489.00 W/m2
18:40 8.7 °C -1.4 °C 1007.3 hPa SSW 3.2 km/h 20.9 km/h 49% 0 mm 330.00 W/m2
18:45 8.9 °C -1.2 °C 1007.3 hPa SSE 14.5 km/h 17.7 km/h 49% 0 mm 441.00 W/m2
18:50 9.1 °C -1.4 °C 1007.3 hPa SW 9.7 km/h 17.7 km/h 48% 0 mm 399.00 W/m2
18:55 9.2 °C -2.1 °C 1007.3 hPa SW 9.7 km/h 17.7 km/h 45% 0 mm 408.00 W/m2
19:00 9.4 °C -1.4 °C 1007.3 hPa South 11.3 km/h 16.1 km/h 47% 0 mm 387.00 W/m2
19:05 9.3 °C -0.9 °C 1007.3 hPa SE 14.5 km/h 16.1 km/h 49% 0 mm 360.00 W/m2
19:10 9.2 °C -1.6 °C 1007.3 hPa South 9.7 km/h 16.1 km/h 47% 0 mm 348.00 W/m2
19:15 9.1 °C -1.3 °C 1007.3 hPa South 4.8 km/h 14.5 km/h 48% 0 mm 341.00 W/m2
19:20 9.2 °C -1.2 °C 1007.3 hPa SSE 9.7 km/h 17.7 km/h 48% 0 mm 316.00 W/m2
19:25 9.2 °C -1.2 °C 1007.3 hPa South 8 km/h 17.7 km/h 48% 0 mm 309.00 W/m2
19:30 9.1 °C -1.3 °C 1007.3 hPa South 12.9 km/h 20.9 km/h 48% 0 mm 107.00 W/m2
19:35 8.4 °C -1.7 °C 1007.7 hPa SSW 14.5 km/h 20.9 km/h 49% 0 mm 76.00 W/m2
19:40 8 °C -1.8 °C 1007.7 hPa South 11.3 km/h 20.9 km/h 50% 0 mm 163.00 W/m2
19:45 8.3 °C -1.3 °C 1007.7 hPa SSW 11.3 km/h 16.1 km/h 51% 0 mm 185.00 W/m2
19:50 8.6 °C -1.6 °C 1007.7 hPa SSW 11.3 km/h 16.1 km/h 49% 0 mm 171.00 W/m2
19:55 8.5 °C -1.6 °C 1007.7 hPa SSE 11.3 km/h 17.7 km/h 49% 0 mm 81.00 W/m2
20:00 8.2 °C -1.1 °C 1007.7 hPa SSE 14.5 km/h 17.7 km/h 52% 0 mm 63.00 W/m2
20:05 7.7 °C -1.3 °C 1007.7 hPa South 9.7 km/h 19.3 km/h 53% 0 mm 47.00 W/m2
20:10 7.6 °C -1.1 °C 1007.7 hPa South 8 km/h 19.3 km/h 54% 0 mm 102.00 W/m2
20:15 7.7 °C -1.3 °C 1007.7 hPa South 6.4 km/h 17.7 km/h 53% 0 mm 83.00 W/m2
20:20 7.6 °C -1.4 °C 1007.7 hPa South 8 km/h 16.1 km/h 53% 0 mm 54.00 W/m2
20:25 7.4 °C -1.3 °C 1007.7 hPa South 9.7 km/h 16.1 km/h 54% 0 mm 46.00 W/m2
20:30 7.2 °C -0.3 °C 1007.7 hPa South 9.7 km/h 17.7 km/h 59% 0 mm 37.00 W/m2
20:35 6.8 °C -0.2 °C 1007.7 hPa South 8 km/h 17.7 km/h 61% 0 mm 23.00 W/m2
20:40 6.4 °C 0.1 °C 1007.7 hPa South 9.7 km/h 17.7 km/h 64% 0 mm 19.00 W/m2
20:45 6 °C -0.1 °C 1007.7 hPa South 12.9 km/h 17.7 km/h 65% 0 mm 16.00 W/m2
20:50 5.7 °C -0.2 °C 1007.7 hPa South 9.7 km/h 17.7 km/h 66% 0 mm 12.00 W/m2
20:55 5.6 °C -0.1 °C 1007.7 hPa South 8 km/h 19.3 km/h 67% 0 mm 11.00 W/m2
21:00 5.3 °C -0.1 °C 1008 hPa SSE 9.7 km/h 19.3 km/h 68% 0 mm 9.00 W/m2
21:05 5.2 °C -0.1 °C 1007.7 hPa SSE 6.4 km/h 16.1 km/h 69% 0 mm 5.00 W/m2
21:10 4.8 °C -0.4 °C 1007.7 hPa SSE 16.1 km/h 16.1 km/h 69% 0 mm 0.00 W/m2
21:15 4.4 °C -0.3 °C 1007.7 hPa SSE 11.3 km/h 17.7 km/h 71% 0 mm 0.00 W/m2
21:20 4.2 °C -0.6 °C 1007.7 hPa SSE 9.7 km/h 17.7 km/h 71% 0 mm 0.00 W/m2
21:25 3.9 °C -0.7 °C 1007.7 hPa South 11.3 km/h 16.1 km/h 72% 0 mm 0.00 W/m2
21:30 3.7 °C -0.7 °C 1007.7 hPa South 11.3 km/h 16.1 km/h 73% 0 mm 0.00 W/m2
21:35 3.6 °C -0.6 °C 1007.7 hPa South 11.3 km/h 14.5 km/h 74% 0 mm 0.00 W/m2
21:40 3.7 °C -0.6 °C 1007.7 hPa South 9.7 km/h 19.3 km/h 74% 0 mm 0.00 W/m2
21:45 3.8 °C -0.2 °C 1008 hPa South 11.3 km/h 24.1 km/h 75% 0 mm 0.00 W/m2
21:50 3.8 °C -0.2 °C 1007.7 hPa SSE 12.9 km/h 24.1 km/h 75% 0 mm 0.00 W/m2
21:55 3.7 °C -0.2 °C 1007.7 hPa South 14.5 km/h 27.4 km/h 76% 0 mm 0.00 W/m2
22:00 3.6 °C -0.3 °C 1007.7 hPa SSE 16.1 km/h 27.4 km/h 76% 0 mm 0.00 W/m2
22:05 3.3 °C -0.4 °C 1007.7 hPa SSE 22.5 km/h 24.1 km/h 77% 0 mm 0.00 W/m2
22:10 3.1 °C -0.6 °C 1007.7 hPa South 17.7 km/h 24.1 km/h 77% 0 mm 0.00 W/m2
22:15 2.9 °C -0.5 °C 1007.7 hPa South 8 km/h 24.1 km/h 78% 0 mm 0.00 W/m2
22:20 2.8 °C -0.7 °C 1008 hPa South 12.9 km/h 22.5 km/h 78% 0 mm 0.00 W/m2
22:25 2.8 °C -0.7 °C 1008 hPa South 9.7 km/h 24.1 km/h 78% 0 mm 0.00 W/m2
22:30 2.6 °C -0.8 °C 1008 hPa South 14.5 km/h 24.1 km/h 78% 0 mm 0.00 W/m2
22:35 2.4 °C -0.8 °C 1008 hPa South 9.7 km/h 22.5 km/h 79% 0 mm 0.00 W/m2
22:40 2.3 °C -0.9 °C 1008 hPa South 11.3 km/h 22.5 km/h 79% 0 mm 0.00 W/m2
22:45 2.2 °C -1.1 °C 1008 hPa SSE 8 km/h 16.1 km/h 79% 0 mm 0.00 W/m2
22:50 2 °C -1.3 °C 1008 hPa SE 6.4 km/h 16.1 km/h 79% 0 mm 0.00 W/m2
22:55 1.8 °C -1.3 °C 1008 hPa SSE 9.7 km/h 16.1 km/h 80% 0 mm 0.00 W/m2
23:00 1.7 °C -1.4 °C 1008 hPa SSE 9.7 km/h 16.1 km/h 80% 0 mm 0.00 W/m2
23:05 1.5 °C -1.4 °C 1008 hPa SSE 3.2 km/h 16.1 km/h 81% 0 mm 0.00 W/m2
23:10 1.4 °C -1.5 °C 1008 hPa South 8 km/h 16.1 km/h 81% 0 mm 0.00 W/m2
23:15 1.3 °C -1.4 °C 1008 hPa SE 8 km/h 11.3 km/h 82% 0 mm 0.00 W/m2
23:20 1.2 °C -1.5 °C 1008 hPa South 6.4 km/h 11.3 km/h 82% 0 mm 0.00 W/m2
23:25 1.2 °C -1.6 °C 1008 hPa South 6.4 km/h 11.3 km/h 82% 0 mm 0.00 W/m2
23:30 1.1 °C -1.7 °C 1008 hPa South 4.8 km/h 9.7 km/h 82% 0 mm 0.00 W/m2
23:35 1.1 °C -1.5 °C 1008 hPa SSW 6.4 km/h 8 km/h 83% 0 mm 0.00 W/m2
23:40 1.1 °C -1.5 °C 1008 hPa South 6.4 km/h 8 km/h 83% 0 mm 0.00 W/m2
23:45 0.9 °C -1.6 °C 1008 hPa South 6.4 km/h 9.7 km/h 83% 0 mm 0.00 W/m2
23:50 0.9 °C -1.7 °C 1008 hPa South 6.4 km/h 9.7 km/h 83% 0 mm 0.00 W/m2
23:55 0.8 °C -1.6 °C 1008 hPa South 8 km/h 11.3 km/h 84% 0 mm 0.00 W/m2
Bismarck, North Dakota, USA
Compliments of Weather Underground - 4 mb